Time;durP1;ratioP1;P1;durP2;ratioP2;P2;SDS_P1;SDS_P2;PMS_P1;PMS_P2;Temp;Humidity;BMP_temperature;BMP_pressure;BME280_temperature;BME280_humidity;BME280_pressure;Samples;Min_cycle;Max_cycle;Signal;HPM_P1;HPM_P2
2023/07/27 00:00:05;;;;;;;9.20;5.00;;;13.90;99.90;;;;;;5115572;28;20031;-75
2023/07/27 00:02:32;;;;;;;7.78;5.18;;;13.80;99.90;;;;;;5114773;28;20042;-74
2023/07/27 00:04:57;;;;;;;9.07;4.80;;;13.80;99.90;;;;;;5115335;28;20040;-74
2023/07/27 00:07:26;;;;;;;9.73;5.65;;;13.80;99.90;;;;;;5097385;28;20039;-74
2023/07/27 00:09:52;;;;;;;9.48;5.82;;;13.80;99.90;;;;;;5115316;28;20039;-75
2023/07/27 00:12:18;;;;;;;9.68;5.90;;;13.80;99.90;;;;;;5115494;28;20039;-75
2023/07/27 00:14:44;;;;;;;8.43;5.28;;;13.80;99.90;;;;;;5096888;28;20039;-75
2023/07/27 00:17:09;;;;;;;8.63;5.60;;;13.80;99.90;;;;;;5115560;28;20067;-74
2023/07/27 00:19:35;;;;;;;7.82;4.28;;;13.80;99.90;;;;;;5097288;28;20032;-74
2023/07/27 00:22:01;;;;;;;7.75;4.70;;;13.80;99.90;;;;;;5115117;28;20487;-75
2023/07/27 00:24:26;;;;;;;7.90;4.68;;;13.90;99.90;;;;;;5115065;28;20039;-75
2023/07/27 00:26:52;;;;;;;6.90;4.60;;;13.90;99.90;;;;;;5097265;28;20047;-75
2023/07/27 00:29:19;;;;;;;8.88;5.22;;;13.90;99.90;;;;;;5096833;28;20046;-74
2023/07/27 00:31:44;;;;;;;9.30;5.60;;;13.90;99.90;;;;;;5063658;28;20050;-74
2023/07/27 00:34:10;;;;;;;9.90;6.35;;;13.90;99.90;;;;;;5115150;28;20040;-74
2023/07/27 00:36:36;;;;;;;10.43;6.20;;;13.90;99.90;;;;;;5114693;28;20052;-74
2023/07/27 00:39:02;;;;;;;9.63;6.22;;;13.90;99.90;;;;;;5096896;28;20036;-74
2023/07/27 00:41:28;;;;;;;9.18;5.43;;;13.80;99.90;;;;;;5114684;28;20067;-75
2023/07/27 00:43:53;;;;;;;10.05;5.50;;;13.80;99.90;;;;;;5114935;28;20039;-75
2023/07/27 00:46:19;;;;;;;7.90;4.90;;;13.80;99.90;;;;;;5114920;28;20042;-75
2023/07/27 00:48:45;;;;;;;8.40;4.72;;;13.80;99.90;;;;;;5096658;28;20046;-74
2023/07/27 00:51:11;;;;;;;8.00;4.88;;;13.80;99.90;;;;;;5079766;28;20075;-74
2023/07/27 00:53:37;;;;;;;7.32;4.47;;;13.90;99.90;;;;;;5096312;28;20043;-75
2023/07/27 00:56:05;;;;;;;8.05;4.90;;;13.90;99.90;;;;;;5114596;28;20044;-74
2023/07/27 00:58:32;;;;;;;9.48;5.15;;;14.00;99.90;;;;;;5114423;28;20048;-75
2023/07/27 01:01:01;;;;;;;8.02;4.40;;;14.00;99.90;;;;;;5114335;28;20078;-73
2023/07/27 01:03:28;;;;;;;8.32;4.63;;;14.00;99.90;;;;;;5114463;28;20368;-74
2023/07/27 01:05:54;;;;;;;7.47;4.30;;;14.10;99.90;;;;;;5078420;28;20036;-75
2023/07/27 01:08:20;;;;;;;8.88;4.45;;;14.10;99.90;;;;;;5113896;28;20165;-74
2023/07/27 01:10:51;;;;;;;7.90;5.00;;;14.10;99.90;;;;;;5114441;28;20093;-74
2023/07/27 01:15:58;;;;;;;8.52;5.03;;;14.20;99.90;;;;;;5521403;22;20058;-63
2023/07/27 01:18:38;;;;;;;8.03;5.30;;;14.20;99.90;;;;;;4996383;28;20041;-67
2023/07/27 01:21:17;;;;;;;10.93;5.40;;;14.20;99.90;;;;;;4996243;28;20285;-65
2023/07/27 01:24:16;;;;;;;9.10;5.68;;;14.10;99.90;;;;;;4996088;28;20046;-66
2023/07/27 01:26:53;;;;;;;10.07;6.00;;;14.10;99.90;;;;;;4996160;28;20045;-63
2023/07/27 01:29:57;;;;;;;10.25;6.22;;;14.00;99.90;;;;;;4996051;28;20449;-63
2023/07/27 01:32:27;;;;;;;9.07;5.85;;;14.00;99.90;;;;;;4996343;28;20054;-62
2023/07/27 01:34:58;;;;;;;8.50;5.32;;;14.10;99.90;;;;;;4996169;28;20046;-62
2023/07/27 01:37:25;;;;;;;8.95;5.35;;;14.00;99.90;;;;;;4996373;28;20042;-63
2023/07/27 01:39:53;;;;;;;7.88;4.88;;;14.10;99.90;;;;;;4996004;28;20045;-63
2023/07/27 01:42:19;;;;;;;8.75;4.97;;;14.10;99.90;;;;;;4980031;28;20442;-62
2023/07/27 01:44:46;;;;;;;8.27;5.07;;;14.10;99.90;;;;;;4979824;28;20056;-63
2023/07/27 01:47:13;;;;;;;9.07;4.85;;;14.00;99.90;;;;;;4995895;28;20050;-62
2023/07/27 01:49:41;;;;;;;9.20;5.13;;;14.10;99.90;;;;;;5013596;28;20041;-63
2023/07/27 01:52:09;;;;;;;6.88;4.35;;;14.10;99.90;;;;;;4996000;28;20042;-63
2023/07/27 01:54:35;;;;;;;8.70;4.60;;;14.10;99.90;;;;;;4996127;28;20048;-63
2023/07/27 01:57:02;;;;;;;8.43;4.43;;;14.10;99.90;;;;;;5013129;28;20057;-62
2023/07/27 01:59:29;;;;;;;9.23;5.38;;;14.10;99.90;;;;;;4996102;28;20041;-63
2023/07/27 02:01:55;;;;;;;10.95;5.10;;;14.10;99.90;;;;;;4995961;28;20501;-63
2023/07/27 02:04:21;;;;;;;6.72;4.30;;;14.10;99.90;;;;;;4995704;28;20129;-62
2023/07/27 02:06:50;;;;;;;8.52;4.97;;;14.10;99.90;;;;;;5013279;28;20054;-63
2023/07/27 02:09:16;;;;;;;7.18;4.55;;;14.10;99.90;;;;;;4995847;28;20408;-63
2023/07/27 02:11:45;;;;;;;7.97;4.63;;;14.10;99.90;;;;;;4995474;28;20053;-63
2023/07/27 02:14:41;;;;;;;7.30;4.20;;;14.10;99.90;;;;;;4995820;28;20397;-63
2023/07/27 02:17:23;;;;;;;8.02;4.22;;;14.10;99.90;;;;;;5013271;28;20049;-63
2023/07/27 02:19:56;;;;;;;8.63;4.93;;;14.10;99.90;;;;;;4995464;28;20122;-62
2023/07/27 02:22:23;;;;;;;7.38;4.75;;;14.10;99.90;;;;;;5013350;28;20041;-63
2023/07/27 02:24:49;;;;;;;8.02;4.90;;;14.10;99.90;;;;;;4963399;28;20108;-63
2023/07/27 02:27:14;;;;;;;9.25;5.90;;;14.10;99.90;;;;;;5016164;28;20432;-67
2023/07/27 02:29:40;;;;;;;7.57;5.30;;;14.10;99.90;;;;;;4983320;28;20378;-67
2023/07/27 02:32:06;;;;;;;9.27;5.45;;;14.10;99.90;;;;;;4967033;28;20042;-67
2023/07/27 02:34:32;;;;;;;7.32;4.53;;;14.00;99.90;;;;;;4999720;28;20482;-67
2023/07/27 02:36:58;;;;;;;7.40;4.50;;;14.00;99.90;;;;;;5016795;28;20042;-67
2023/07/27 02:39:23;;;;;;;7.40;4.10;;;13.90;99.90;;;;;;4999285;28;20460;-67
2023/07/27 02:41:49;;;;;;;7.00;4.30;;;14.00;99.90;;;;;;4999328;28;20045;-67
2023/07/27 02:44:15;;;;;;;7.45;4.45;;;14.00;99.90;;;;;;5016748;28;20041;-67
2023/07/27 02:46:40;;;;;;;8.20;4.57;;;14.00;99.90;;;;;;4999223;28;20145;-67
2023/07/27 02:49:06;;;;;;;8.13;4.80;;;14.00;99.90;;;;;;4999149;28;20049;-67
2023/07/27 02:51:32;;;;;;;7.47;5.00;;;14.00;99.90;;;;;;4999226;28;20477;-68
2023/07/27 02:53:58;;;;;;;9.20;5.57;;;14.00;99.90;;;;;;5016620;28;20048;-67
2023/07/27 02:56:24;;;;;;;9.32;5.47;;;14.00;99.90;;;;;;5016485;28;20038;-67
2023/07/27 02:58:50;;;;;;;9.73;6.55;;;14.00;99.90;;;;;;5016528;28;20038;-67
2023/07/27 03:01:16;;;;;;;10.13;6.70;;;14.00;99.90;;;;;;4999054;28;20104;-67
2023/07/27 03:03:41;;;;;;;9.32;6.18;;;14.00;99.90;;;;;;5016402;28;20052;-67
2023/07/27 03:06:07;;;;;;;8.35;5.32;;;14.00;99.90;;;;;;5016560;28;20085;-67
2023/07/27 03:08:33;;;;;;;12.50;7.47;;;14.00;99.90;;;;;;4998794;28;20041;-67
2023/07/27 03:11:03;;;;;;;10.77;7.50;;;13.90;99.90;;;;;;4999208;28;20038;-67
2023/07/27 03:13:29;;;;;;;12.32;7.63;;;13.90;99.90;;;;;;5016116;28;20046;-67
2023/07/27 03:15:55;;;;;;;10.80;7.20;;;13.90;99.90;;;;;;5015932;28;20132;-67
2023/07/27 03:18:21;;;;;;;11.38;7.43;;;13.90;99.90;;;;;;4998581;28;20038;-67
2023/07/27 03:20:47;;;;;;;11.65;7.80;;;13.90;99.90;;;;;;4998494;28;20481;-67
2023/07/27 03:23:12;;;;;;;11.57;7.57;;;13.90;99.90;;;;;;4998789;28;20120;-67
2023/07/27 03:25:39;;;;;;;11.68;7.95;;;13.90;99.90;;;;;;4966053;28;20042;-67
2023/07/27 03:28:06;;;;;;;13.68;8.30;;;13.90;99.90;;;;;;4998657;28;20041;-67
2023/07/27 03:30:34;;;;;;;11.60;8.05;;;13.90;99.90;;;;;;4998247;28;20054;-67
2023/07/27 03:32:59;;;;;;;12.75;8.18;;;13.90;99.90;;;;;;5016010;28;20501;-67
2023/07/27 03:35:25;;;;;;;13.75;8.88;;;13.90;99.90;;;;;;5015828;28;20122;-63
2023/07/27 03:37:51;;;;;;;13.82;8.82;;;13.90;99.90;;;;;;5014884;28;20397;-62
2023/07/27 03:40:18;;;;;;;12.55;8.65;;;13.90;99.90;;;;;;4982091;28;20046;-62
2023/07/27 03:42:44;;;;;;;12.45;8.40;;;13.90;99.90;;;;;;5015703;28;20048;-62
2023/07/27 03:45:10;;;;;;;12.45;8.77;;;13.90;99.90;;;;;;4997898;28;20045;-63
2023/07/27 03:47:36;;;;;;;15.85;9.15;;;13.90;99.90;;;;;;4997819;28;20100;-62
2023/07/27 03:50:02;;;;;;;12.32;8.73;;;13.80;99.90;;;;;;5015624;28;20481;-62
2023/07/27 03:52:27;;;;;;;14.40;9.48;;;13.80;99.90;;;;;;5015435;28;20038;-62
2023/07/27 03:54:53;;;;;;;12.93;9.43;;;13.80;99.90;;;;;;4997815;28;20034;-62
2023/07/27 03:57:19;;;;;;;12.73;9.60;;;13.80;99.90;;;;;;4998167;28;20038;-62
2023/07/27 03:59:44;;;;;;;13.93;9.98;;;13.80;99.90;;;;;;5015735;28;20042;-62
2023/07/27 04:02:10;;;;;;;13.65;9.90;;;13.80;99.90;;;;;;5015174;28;20049;-63
2023/07/27 04:04:36;;;;;;;16.15;9.98;;;13.80;99.90;;;;;;4997841;28;20046;-62
2023/07/27 04:07:01;;;;;;;13.80;10.10;;;13.80;99.90;;;;;;5015403;28;20046;-62
2023/07/27 04:09:27;;;;;;;14.68;10.75;;;13.70;99.90;;;;;;4981277;28;20057;-62
2023/07/27 04:11:53;;;;;;;17.00;10.77;;;13.80;99.90;;;;;;4997448;28;20046;-62
2023/07/27 04:14:19;;;;;;;15.32;10.45;;;13.70;99.90;;;;;;5015180;28;20045;-62
2023/07/27 04:16:44;;;;;;;14.88;9.90;;;13.70;99.90;;;;;;5014829;28;20405;-62
2023/07/27 04:19:10;;;;;;;13.55;9.80;;;13.70;99.90;;;;;;4997377;28;20417;-62
2023/07/27 04:21:36;;;;;;;15.68;11.00;;;13.70;99.90;;;;;;5014860;28;20401;-62
2023/07/27 04:24:01;;;;;;;13.82;9.55;;;13.70;99.90;;;;;;4997347;28;20329;-62
2023/07/27 04:26:28;;;;;;;16.23;11.60;;;13.70;99.90;;;;;;4997463;28;20475;-62
2023/07/27 04:28:54;;;;;;;15.15;11.10;;;13.70;99.90;;;;;;5014677;28;20117;-62
2023/07/27 04:31:20;;;;;;;15.82;10.85;;;13.70;99.90;;;;;;5014977;28;20153;-62
2023/07/27 04:33:45;;;;;;;18.17;12.25;;;13.70;99.90;;;;;;4997374;28;20049;-63
2023/07/27 04:36:11;;;;;;;15.90;10.80;;;13.70;99.90;;;;;;4980709;28;20142;-62
2023/07/27 04:38:37;;;;;;;16.05;12.02;;;13.70;99.90;;;;;;5014579;28;20042;-63
2023/07/27 04:41:02;;;;;;;13.65;10.35;;;13.80;99.90;;;;;;5014859;28;20033;-62
2023/07/27 04:43:28;;;;;;;14.18;10.32;;;13.80;99.90;;;;;;4996807;28;20042;-62
2023/07/27 04:45:53;;;;;;;12.68;9.93;;;13.80;99.90;;;;;;4997226;28;20103;-62
2023/07/27 04:48:19;;;;;;;16.83;11.70;;;13.80;99.90;;;;;;4996541;28;20074;-62
2023/07/27 04:50:45;;;;;;;13.68;10.40;;;13.80;99.90;;;;;;4996561;28;20071;-62
2023/07/27 04:53:10;;;;;;;14.80;11.00;;;13.80;99.90;;;;;;4997039;28;20037;-62
2023/07/27 04:55:36;;;;;;;15.85;11.68;;;13.70;99.90;;;;;;4996832;28;20129;-62
2023/07/27 04:58:02;;;;;;;14.77;11.23;;;13.80;99.90;;;;;;5014511;28;20120;-62
2023/07/27 05:00:27;;;;;;;16.90;12.00;;;13.80;99.90;;;;;;4996518;28;20100;-62
2023/07/27 05:02:53;;;;;;;14.57;11.20;;;13.80;99.90;;;;;;4996442;28;20034;-62
2023/07/27 05:05:19;;;;;;;15.00;10.73;;;13.80;99.90;;;;;;4996493;28;20108;-63
2023/07/27 05:07:45;;;;;;;14.05;10.52;;;13.80;99.90;;;;;;5013216;28;20049;-63
2023/07/27 05:10:10;;;;;;;12.43;9.02;;;13.90;99.90;;;;;;5012858;28;20180;-62
2023/07/27 05:12:36;;;;;;;13.63;9.65;;;13.90;99.90;;;;;;4996695;28;20045;-62
2023/07/27 05:15:02;;;;;;;12.70;9.05;;;13.90;99.90;;;;;;4996193;28;20057;-62
2023/07/27 05:17:27;;;;;;;10.65;8.27;;;13.90;99.90;;;;;;4996334;28;20533;-62
2023/07/27 05:19:54;;;;;;;11.77;8.52;;;14.00;99.90;;;;;;4996472;28;20057;-62
2023/07/27 05:22:20;;;;;;;11.93;8.73;;;14.00;99.90;;;;;;5014048;28;20049;-62
2023/07/27 05:24:46;;;;;;;14.23;9.50;;;14.10;99.90;;;;;;4996180;28;20042;-62
2023/07/27 05:27:12;;;;;;;13.75;9.65;;;14.10;99.90;;;;;;4996086;28;20100;-62
2023/07/27 05:29:37;;;;;;;14.95;10.05;;;14.10;99.90;;;;;;4996140;28;20125;-62
2023/07/27 05:32:03;;;;;;;13.98;9.57;;;14.20;99.90;;;;;;5012573;28;20041;-62
2023/07/27 05:34:29;;;;;;;14.35;9.75;;;14.20;99.90;;;;;;5013673;28;20497;-62
2023/07/27 05:36:55;;;;;;;14.73;9.68;;;14.20;99.90;;;;;;4995939;28;20068;-62
2023/07/27 05:39:21;;;;;;;14.43;10.55;;;14.30;99.90;;;;;;5013656;28;20038;-62
2023/07/27 05:41:46;;;;;;;14.00;9.82;;;14.30;99.90;;;;;;4996247;28;20396;-62
2023/07/27 05:44:12;;;;;;;15.95;11.20;;;14.30;99.90;;;;;;4996293;28;20044;-62
2023/07/27 05:46:38;;;;;;;14.73;10.45;;;14.30;99.90;;;;;;4979882;28;20048;-62
2023/07/27 05:49:05;;;;;;;14.88;10.80;;;14.30;99.90;;;;;;4995979;28;20041;-62
2023/07/27 05:51:31;;;;;;;16.77;11.63;;;14.30;99.90;;;;;;5012216;28;20111;-62
2023/07/27 05:53:56;;;;;;;15.73;11.18;;;14.30;99.90;;;;;;4995862;28;20116;-62
2023/07/27 05:56:23;;;;;;;15.15;11.55;;;14.30;99.90;;;;;;4995500;28;20053;-66
2023/07/27 05:58:48;;;;;;;15.50;12.32;;;14.30;99.90;;;;;;4995912;28;20053;-67
2023/07/27 06:01:16;;;;;;;15.27;11.00;;;14.30;99.90;;;;;;5013137;28;20036;-66
2023/07/27 06:03:42;;;;;;;16.90;11.85;;;14.30;99.90;;;;;;4995766;28;20042;-66
2023/07/27 06:06:08;;;;;;;16.15;12.27;;;14.30;99.90;;;;;;5013045;28;20052;-66
2023/07/27 06:08:33;;;;;;;17.40;12.52;;;14.40;99.90;;;;;;4995676;28;20042;-67
2023/07/27 06:11:09;;;;;;;18.33;12.48;;;14.30;99.90;;;;;;5013258;28;20034;-66
2023/07/27 06:13:35;;;;;;;18.33;13.48;;;14.40;99.90;;;;;;4996031;28;20042;-67
2023/07/27 06:16:01;;;;;;;20.25;15.63;;;14.40;99.90;;;;;;4995249;28;20086;-67
2023/07/27 06:18:27;;;;;;;21.90;15.32;;;14.40;99.90;;;;;;5013590;28;20050;-67
2023/07/27 06:20:53;;;;;;;18.13;13.63;;;14.40;99.90;;;;;;4995452;28;20040;-67
2023/07/27 06:23:19;;;;;;;19.88;14.18;;;14.50;99.90;;;;;;4995428;28;20074;-66
2023/07/27 06:25:46;;;;;;;18.85;14.32;;;14.50;99.90;;;;;;5013465;28;20108;-67
2023/07/27 06:28:12;;;;;;;19.50;15.15;;;14.50;99.90;;;;;;5013335;28;20084;-66
2023/07/27 06:30:38;;;;;;;19.15;15.15;;;14.70;99.90;;;;;;5013345;28;20061;-68
2023/07/27 06:33:08;;;;;;;19.25;14.73;;;14.70;99.90;;;;;;4995391;28;20092;-67
2023/07/27 06:35:34;;;;;;;21.00;15.95;;;14.70;99.90;;;;;;5013022;28;20050;-67
2023/07/27 06:37:59;;;;;;;23.73;17.55;;;14.60;99.90;;;;;;4995584;28;20038;-67
2023/07/27 06:40:26;;;;;;;22.45;16.60;;;14.60;99.90;;;;;;5012008;28;20048;-67
2023/07/27 06:42:51;;;;;;;18.60;15.50;;;14.60;99.90;;;;;;4995568;28;20053;-69
2023/07/27 06:45:17;;;;;;;20.73;16.13;;;14.60;99.90;;;;;;5013196;28;20042;-68
2023/07/27 06:47:43;;;;;;;21.02;16.52;;;14.70;99.90;;;;;;4994951;28;20153;-70
2023/07/27 06:50:09;;;;;;;21.23;16.85;;;14.70;99.90;;;;;;5012832;28;20038;-68
2023/07/27 06:52:35;;;;;;;20.83;15.63;;;14.70;99.90;;;;;;5012793;28;20045;-71
2023/07/27 06:55:01;;;;;;;18.92;15.00;;;14.80;99.90;;;;;;4994161;28;20547;-67
2023/07/27 06:57:27;;;;;;;19.90;16.15;;;14.80;99.90;;;;;;5011460;28;20096;-68
2023/07/27 06:59:53;;;;;;;15.77;12.65;;;14.90;99.90;;;;;;4995390;28;20053;-69
2023/07/27 07:02:18;;;;;;;17.13;13.43;;;14.90;99.90;;;;;;4995311;28;20050;-67
2023/07/27 07:04:45;;;;;;;17.30;14.13;;;15.00;99.90;;;;;;5012954;28;20034;-68
2023/07/27 07:07:11;;;;;;;17.75;13.85;;;15.00;99.90;;;;;;5011631;28;20050;-62
2023/07/27 07:09:38;;;;;;;13.05;10.75;;;15.10;99.90;;;;;;4995435;28;20041;-64
2023/07/27 07:12:05;;;;;;;14.20;11.02;;;15.10;99.90;;;;;;4995931;28;20413;-62
2023/07/27 07:14:31;;;;;;;13.40;9.68;;;15.20;99.90;;;;;;4998638;28;20053;-62
2023/07/27 07:16:57;;;;;;;13.77;10.73;;;15.20;99.90;;;;;;4995029;28;20062;-62
2023/07/27 07:19:23;;;;;;;13.30;10.75;;;15.20;99.90;;;;;;4995263;28;20038;-63
2023/07/27 07:21:49;;;;;;;12.25;9.75;;;15.20;99.90;;;;;;4979210;28;20050;-63
2023/07/27 07:24:15;;;;;;;13.82;10.80;;;15.20;99.90;;;;;;4996613;28;20121;-62
2023/07/27 07:26:40;;;;;;;14.35;10.50;;;15.20;99.90;;;;;;4995530;28;20069;-62
2023/07/27 07:29:07;;;;;;;13.25;10.40;;;15.30;99.90;;;;;;4996571;28;20124;-62
2023/07/27 07:31:33;;;;;;;12.25;9.27;;;15.20;99.90;;;;;;4996259;28;20052;-62
2023/07/27 07:33:59;;;;;;;11.35;8.10;;;15.30;99.90;;;;;;4995521;28;20483;-63
2023/07/27 07:36:27;;;;;;;11.27;8.82;;;15.30;99.90;;;;;;4994847;28;20045;-62
2023/07/27 07:38:53;;;;;;;12.82;10.57;;;15.30;99.90;;;;;;4995207;28;20042;-63
2023/07/27 07:41:19;;;;;;;12.35;9.43;;;15.20;99.90;;;;;;4995002;28;20046;-63
2023/07/27 07:43:45;;;;;;;13.43;10.07;;;15.20;99.90;;;;;;4994929;28;20046;-63
2023/07/27 07:46:14;;;;;;;12.00;9.13;;;15.20;99.90;;;;;;4995121;28;20133;-63
2023/07/27 07:48:40;;;;;;;13.13;9.23;;;15.30;99.90;;;;;;4994768;28;20047;-63
2023/07/27 07:51:14;;;;;;;12.88;9.63;;;15.30;99.90;;;;;;4994757;28;20049;-63
2023/07/27 07:53:40;;;;;;;10.52;8.73;;;15.30;99.90;;;;;;4994834;28;20452;-63
2023/07/27 07:56:15;;;;;;;10.85;8.75;;;15.30;99.90;;;;;;4995040;28;20046;-63
2023/07/27 07:58:41;;;;;;;11.63;10.07;;;15.30;99.90;;;;;;4996083;28;20038;-63
2023/07/27 08:01:08;;;;;;;11.18;9.15;;;15.30;99.90;;;;;;4995831;28;20106;-63
2023/07/27 08:03:34;;;;;;;11.50;9.55;;;15.30;99.90;;;;;;4995756;28;20042;-63
2023/07/27 08:05:59;;;;;;;12.55;11.00;;;15.30;99.90;;;;;;4978274;28;20096;-63
2023/07/27 08:08:25;;;;;;;13.57;10.52;;;15.30;99.90;;;;;;4994352;28;20043;-63
2023/07/27 08:10:51;;;;;;;10.30;8.82;;;15.30;99.90;;;;;;4994323;28;20082;-63
2023/07/27 08:13:17;;;;;;;11.20;10.00;;;15.30;99.90;;;;;;4994326;28;20129;-63
2023/07/27 08:15:53;;;;;;;11.30;9.57;;;15.30;99.90;;;;;;4980676;28;20132;-66
2023/07/27 08:18:19;;;;;;;12.25;10.80;;;15.40;99.90;;;;;;4997588;28;20049;-67
2023/07/27 08:20:44;;;;;;;9.90;8.75;;;15.30;99.90;;;;;;5013742;28;20037;-67
2023/07/27 08:23:10;;;;;;;11.05;9.70;;;15.40;99.90;;;;;;4997085;28;20041;-67
2023/07/27 08:25:37;;;;;;;10.48;9.35;;;15.30;99.90;;;;;;4996775;28;20053;-67
2023/07/27 08:28:03;;;;;;;10.75;9.18;;;15.40;99.90;;;;;;4997526;28;20045;-67
2023/07/27 08:30:29;;;;;;;9.27;7.80;;;15.40;99.90;;;;;;4997185;28;20053;-67
2023/07/27 08:32:54;;;;;;;8.75;7.13;;;15.40;99.90;;;;;;4980993;28;20045;-67
2023/07/27 08:35:20;;;;;;;8.63;7.72;;;15.50;99.90;;;;;;5014866;28;20473;-67
2023/07/27 08:37:46;;;;;;;8.70;7.50;;;15.50;99.90;;;;;;4997399;28;20038;-67
2023/07/27 08:40:12;;;;;;;9.45;8.45;;;15.60;99.90;;;;;;4996961;28;20042;-67
2023/07/27 08:42:39;;;;;;;8.07;7.15;;;15.60;99.90;;;;;;4997244;28;20096;-67
2023/07/27 08:45:06;;;;;;;8.30;6.97;;;15.50;99.90;;;;;;4996862;28;20092;-67
2023/07/27 08:47:33;;;;;;;8.35;6.68;;;15.50;99.90;;;;;;4996919;28;20068;-67
2023/07/27 08:49:59;;;;;;;7.45;6.10;;;15.60;99.90;;;;;;4996753;28;20049;-67
2023/07/27 08:52:25;;;;;;;7.72;6.10;;;15.60;99.90;;;;;;4997188;28;20092;-67
2023/07/27 08:54:51;;;;;;;8.50;7.20;;;15.60;99.90;;;;;;4996668;28;20045;-67
2023/07/27 08:57:17;;;;;;;7.55;5.80;;;15.60;99.90;;;;;;4996620;28;20046;-67
2023/07/27 08:59:43;;;;;;;8.48;7.05;;;15.60;99.90;;;;;;4996589;28;20073;-67
2023/07/27 09:02:08;;;;;;;8.38;6.97;;;15.50;99.90;;;;;;4980490;28;20095;-67
2023/07/27 09:04:34;;;;;;;7.85;6.05;;;15.60;99.90;;;;;;4996739;28;20049;-67
2023/07/27 09:07:07;;;;;;;8.02;6.55;;;15.60;99.90;;;;;;4980344;28;20116;-68
2023/07/27 09:09:34;;;;;;;8.10;6.85;;;15.60;99.90;;;;;;4980181;28;20049;-68
2023/07/27 09:12:03;;;;;;;7.72;6.25;;;15.60;99.90;;;;;;4996297;28;20042;-67
2023/07/27 09:14:37;;;;;;;7.55;6.35;;;15.60;99.90;;;;;;4981115;28;20038;-67
2023/07/27 09:17:04;;;;;;;7.68;6.45;;;15.60;99.90;;;;;;4996195;28;20161;-67
2023/07/27 09:19:35;;;;;;;9.80;7.97;;;15.80;99.90;;;;;;5013940;28;20046;-67
2023/07/27 09:22:02;;;;;;;8.07;6.93;;;15.70;99.90;;;;;;4996671;28;20041;-67
2023/07/27 09:24:32;;;;;;;8.00;6.68;;;15.80;99.90;;;;;;4996206;28;20041;-67
2023/07/27 09:26:58;;;;;;;7.60;6.53;;;15.80;99.90;;;;;;4996203;28;20045;-67
2023/07/27 09:29:24;;;;;;;7.90;6.47;;;15.90;99.90;;;;;;4996208;28;20049;-67
2023/07/27 09:31:57;;;;;;;7.38;5.97;;;16.00;99.90;;;;;;4996135;28;20548;-67
2023/07/27 09:34:24;;;;;;;8.88;6.15;;;16.00;99.90;;;;;;4996361;28;20577;-67
2023/07/27 09:36:50;;;;;;;6.40;5.03;;;16.10;99.90;;;;;;4995139;28;20041;-67
2023/07/27 09:39:16;;;;;;;7.40;5.55;;;16.10;99.90;;;;;;4995964;28;20037;-67
2023/07/27 09:41:46;;;;;;;7.63;5.60;;;16.10;99.90;;;;;;4995918;28;20041;-67
2023/07/27 09:44:14;;;;;;;7.07;5.72;;;16.20;99.90;;;;;;4995891;28;20082;-67
2023/07/27 09:46:41;;;;;;;7.30;5.82;;;16.20;99.90;;;;;;4996236;28;20092;-67
2023/07/27 09:49:07;;;;;;;7.75;5.85;;;16.20;99.90;;;;;;4995915;28;20081;-67
2023/07/27 09:51:33;;;;;;;7.40;5.70;;;16.40;99.90;;;;;;5013608;28;20053;-67
2023/07/27 09:53:59;;;;;;;6.85;5.97;;;16.40;99.90;;;;;;4996170;28;20104;-67
2023/07/27 09:56:27;;;;;;;7.25;6.07;;;16.40;99.90;;;;;;4995792;28;20049;-67
2023/07/27 09:58:53;;;;;;;8.60;7.20;;;16.50;99.90;;;;;;4995739;28;20048;-68
2023/07/27 10:01:19;;;;;;;7.50;6.35;;;16.60;99.90;;;;;;4995673;28;20045;-68
2023/07/27 10:03:46;;;;;;;8.30;7.18;;;16.70;99.90;;;;;;4995667;28;20038;-67
2023/07/27 10:06:15;;;;;;;7.40;6.40;;;16.80;99.90;;;;;;4995974;28;20046;-67
2023/07/27 10:08:42;;;;;;;6.78;5.80;;;16.80;99.90;;;;;;4995644;28;20045;-67
2023/07/27 10:11:08;;;;;;;6.93;5.60;;;16.80;99.90;;;;;;4995937;28;20042;-67
2023/07/27 10:13:42;;;;;;;5.93;4.85;;;16.80;99.90;;;;;;4995546;28;20052;-67
2023/07/27 10:16:10;;;;;;;7.07;5.63;;;16.80;99.90;;;;;;4995266;28;20093;-68
2023/07/27 10:18:46;;;;;;;6.00;5.18;;;16.80;99.90;;;;;;4995643;28;20053;-67
2023/07/27 10:21:21;;;;;;;6.55;5.15;;;16.80;99.90;;;;;;4995671;28;20042;-67
2023/07/27 10:24:01;;;;;;;6.97;5.75;;;16.80;99.90;;;;;;4995497;28;20038;-68
2023/07/27 10:26:46;;;;;;;7.22;5.95;;;16.80;99.90;;;;;;5013083;28;20493;-67
2023/07/27 10:29:15;;;;;;;7.00;5.60;;;16.90;99.90;;;;;;4995518;28;20072;-68
2023/07/27 10:31:44;;;;;;;6.30;5.32;;;16.90;99.90;;;;;;5013301;28;20049;-68
2023/07/27 10:34:15;;;;;;;6.03;4.72;;;16.90;99.90;;;;;;5013129;28;20048;-68
2023/07/27 10:36:48;;;;;;;7.60;6.22;;;16.90;99.90;;;;;;5013276;28;20034;-68
2023/07/27 10:39:15;;;;;;;6.82;6.10;;;17.00;99.90;;;;;;4995472;28;20121;-68
2023/07/27 10:42:00;;;;;;;6.75;5.88;;;17.00;99.90;;;;;;5011747;28;20038;-68
2023/07/27 10:44:33;;;;;;;5.70;4.75;;;17.10;99.90;;;;;;5013318;28;20044;-68
2023/07/27 10:46:58;;;;;;;5.97;4.90;;;17.10;99.90;;;;;;4996205;28;20124;-68
2023/07/27 10:49:25;;;;;;;6.22;5.40;;;17.10;99.90;;;;;;5015467;28;20191;-68
2023/07/27 10:51:51;;;;;;;6.93;5.55;;;17.20;99.90;;;;;;4999407;28;20501;-68
2023/07/27 10:54:18;;;;;;;6.43;5.40;;;17.20;99.90;;;;;;4999104;28;20131;-68
2023/07/27 10:56:44;;;;;;;5.90;5.03;;;17.30;99.90;;;;;;4998916;28;20046;-64
2023/07/27 10:59:14;;;;;;;7.57;5.97;;;17.30;99.90;;;;;;4999094;28;20034;-64
2023/07/27 11:01:40;;;;;;;7.93;6.95;;;17.30;99.90;;;;;;4998815;28;20042;-64
2023/07/27 11:04:07;;;;;;;6.88;5.45;;;17.30;99.90;;;;;;4998664;28;20048;-64
2023/07/27 11:06:43;;;;;;;5.95;5.03;;;17.40;99.90;;;;;;4998635;28;20104;-64
2023/07/27 11:09:14;;;;;;;6.40;5.72;;;17.40;99.90;;;;;;4998972;28;20453;-64
2023/07/27 11:11:40;;;;;;;6.40;5.70;;;17.50;99.90;;;;;;4999057;28;20387;-64
2023/07/27 11:14:07;;;;;;;6.05;5.45;;;17.50;99.90;;;;;;4998482;28;20046;-65
2023/07/27 11:16:37;;;;;;;7.65;6.07;;;17.50;99.90;;;;;;4998337;28;20053;-64
2023/07/27 11:19:04;;;;;;;6.85;5.95;;;17.60;99.90;;;;;;4998886;28;20048;-64
2023/07/27 11:21:38;;;;;;;8.30;5.80;;;17.70;99.90;;;;;;4998907;28;20046;-65
2023/07/27 11:24:05;;;;;;;7.00;5.70;;;17.80;99.90;;;;;;4972088;28;20053;-64
2023/07/27 11:26:30;;;;;;;8.50;7.63;;;17.80;99.90;;;;;;5015312;28;20056;-65
2023/07/27 11:29:00;;;;;;;6.65;5.60;;;17.90;99.90;;;;;;4998206;28;20125;-64
2023/07/27 11:31:26;;;;;;;6.70;6.00;;;18.00;99.90;;;;;;4998298;28;20045;-64
2023/07/27 11:33:59;;;;;;;6.82;5.90;;;18.10;99.90;;;;;;4982084;28;20046;-64
2023/07/27 11:36:30;;;;;;;6.22;4.97;;;18.10;99.90;;;;;;4998442;28;20053;-65
2023/07/27 11:39:00;;;;;;;6.13;4.75;;;18.10;99.90;;;;;;4998090;28;20121;-65
2023/07/27 11:41:28;;;;;;;6.70;5.97;;;18.20;99.90;;;;;;4998196;28;20045;-65
2023/07/27 11:43:55;;;;;;;6.40;4.60;;;18.20;99.90;;;;;;4998356;28;20038;-64
2023/07/27 11:46:21;;;;;;;4.97;3.80;;;18.30;99.90;;;;;;4998231;28;20076;-64
2023/07/27 11:48:49;;;;;;;5.50;4.30;;;18.30;99.90;;;;;;4998269;28;20045;-65
2023/07/27 11:51:15;;;;;;;5.82;5.10;;;18.30;99.90;;;;;;4998327;28;20056;-64
2023/07/27 11:53:44;;;;;;;5.60;4.43;;;18.40;99.90;;;;;;4982077;28;20046;-64
2023/07/27 11:56:10;;;;;;;5.50;4.38;;;18.50;99.90;;;;;;4997786;28;20204;-65
2023/07/27 11:58:37;;;;;;;5.30;4.40;;;18.50;99.90;;;;;;4997082;28;20045;-64
2023/07/27 12:01:03;;;;;;;5.40;4.30;;;18.60;99.90;;;;;;4997714;28;20046;-65
2023/07/27 12:03:34;;;;;;;5.05;4.00;;;18.70;99.90;;;;;;4998083;28;20041;-64
2023/07/27 12:06:02;;;;;;;6.35;5.30;;;18.70;99.90;;;;;;4998011;28;20049;-68
2023/07/27 12:08:30;;;;;;;4.40;3.20;;;18.80;99.90;;;;;;4997421;28;20124;-69
2023/07/27 12:11:02;;;;;;;5.20;3.50;;;18.80;99.90;;;;;;4981600;28;20092;-68
2023/07/27 12:13:28;;;;;;;5.32;3.20;;;18.90;99.90;;;;;;4997460;28;20037;-68
2023/07/27 12:15:57;;;;;;;5.60;4.30;;;18.80;99.90;;;;;;4997133;28;20493;-69
2023/07/27 12:18:28;;;;;;;6.15;4.53;;;18.90;99.90;;;;;;5014973;28;20045;-69
2023/07/27 12:20:55;;;;;;;5.05;3.88;;;18.90;99.90;;;;;;4997373;28;20056;-69
2023/07/27 12:23:25;;;;;;;5.53;4.40;;;19.00;99.90;;;;;;4997190;28;20042;-68
2023/07/27 12:25:54;;;;;;;4.70;3.38;;;19.00;99.90;;;;;;4997599;28;20060;-69
2023/07/27 12:28:20;;;;;;;5.63;4.30;;;19.00;99.90;;;;;;4997391;28;20129;-68
2023/07/27 12:30:46;;;;;;;5.47;3.55;;;19.00;99.90;;;;;;4997116;28;20081;-68
2023/07/27 12:33:12;;;;;;;4.85;3.67;;;19.00;99.90;;;;;;5015024;28;20425;-68
2023/07/27 12:35:38;;;;;;;4.80;3.40;;;19.10;99.90;;;;;;5014547;28;20049;-68
2023/07/27 12:38:04;;;;;;;5.57;3.17;;;19.00;99.90;;;;;;4997022;28;20046;-68
2023/07/27 12:40:30;;;;;;;6.80;4.38;;;19.00;99.90;;;;;;4997033;28;20421;-68
2023/07/27 12:42:57;;;;;;;5.10;3.88;;;19.00;99.90;;;;;;4997556;28;20049;-68